Time;durP1;ratioP1;P1;durP2;ratioP2;P2;SDS_P1;SDS_P2;PMS_P1;PMS_P2;Temp;Humidity;BMP_temperature;BMP_pressure;BME280_temperature;BME280_humidity;BME280_pressure;Samples;Min_cycle;Max_cycle;Signal;HPM_P1;HPM_P2
2021/12/06 00:00:54;;;;;;;22.40;12.85;;;;;;;;;;5017647;28;20052;-64
2021/12/06 00:03:23;;;;;;;17.90;12.85;;;;;;;;;;5017416;28;20052;-64
2021/12/06 00:05:50;;;;;;;19.20;13.20;;;;;;;;;;5016500;28;20046;-65
2021/12/06 00:08:16;;;;;;;19.23;13.18;;;;;;;;;;5017468;28;20100;-64
2021/12/06 00:10:44;;;;;;;18.58;12.32;;;;;;;;;;5017405;28;20050;-62
2021/12/06 00:13:12;;;;;;;19.25;13.50;;;;;;;;;;5017410;28;20329;-65
2021/12/06 00:15:39;;;;;;;18.00;12.68;;;;;;;;;;5017390;28;20042;-64
2021/12/06 00:18:05;;;;;;;17.08;13.15;;;;;;;;;;5032621;28;20116;-63
2021/12/06 00:20:32;;;;;;;16.92;13.25;;;;;;;;;;5017259;28;20041;-64
2021/12/06 00:22:58;;;;;;;20.80;13.40;;;;;;;;;;5016776;28;20128;-64
2021/12/06 00:25:25;;;;;;;20.67;13.43;;;;;;;;;;5015966;28;20317;-63
2021/12/06 00:27:52;;;;;;;16.70;12.18;;;;;;;;;;5017166;28;20595;-64
2021/12/06 00:30:19;;;;;;;16.25;12.40;;;;;;;;;;5015916;28;20455;-64
2021/12/06 00:32:46;;;;;;;17.95;13.43;;;;;;;;;;5016980;28;20054;-65
2021/12/06 00:35:18;;;;;;;18.10;12.48;;;;;;;;;;5032232;28;20447;-64
2021/12/06 00:37:55;;;;;;;18.70;13.05;;;;;;;;;;5015952;28;20137;-64
2021/12/06 00:40:23;;;;;;;19.15;12.25;;;;;;;;;;5016883;28;20108;-62
2021/12/06 00:42:50;;;;;;;18.48;12.48;;;;;;;;;;5015793;28;20076;-64
2021/12/06 00:45:17;;;;;;;19.02;14.15;;;;;;;;;;5015582;28;20049;-64
2021/12/06 00:47:43;;;;;;;22.90;14.27;;;;;;;;;;5031049;28;20046;-64
2021/12/06 00:50:10;;;;;;;22.35;16.02;;;;;;;;;;5016958;28;20351;-63
2021/12/06 00:52:37;;;;;;;23.23;15.35;;;;;;;;;;5016640;28;20061;-63
2021/12/06 00:55:04;;;;;;;20.90;14.45;;;;;;;;;;5031975;28;20053;-65
2021/12/06 00:57:31;;;;;;;21.08;15.23;;;;;;;;;;5031991;28;20443;-64
2021/12/06 00:59:58;;;;;;;27.70;15.82;;;;;;;;;;5032045;28;20073;-63
2021/12/06 01:02:25;;;;;;;21.80;15.48;;;;;;;;;;5016516;28;20443;-64
2021/12/06 01:04:54;;;;;;;18.38;13.82;;;;;;;;;;5015889;28;20073;-64
2021/12/06 01:07:20;;;;;;;20.40;14.43;;;;;;;;;;5015328;28;20046;-63
2021/12/06 01:09:47;;;;;;;24.35;15.23;;;;;;;;;;5015298;28;20057;-65
2021/12/06 01:12:15;;;;;;;23.25;15.43;;;;;;;;;;5012164;28;20038;-64
2021/12/06 01:14:42;;;;;;;23.00;15.73;;;;;;;;;;5003524;28;20053;-65
2021/12/06 01:17:09;;;;;;;24.13;15.48;;;;;;;;;;5009442;28;20133;-65
2021/12/06 01:19:37;;;;;;;20.40;15.25;;;;;;;;;;5020978;28;20046;-63
2021/12/06 01:24:46;;;;;;;20.40;13.75;;;;;;;;;;5004545;28;20057;-63
2021/12/06 01:41:34;;;;;;;21.80;14.02;;;;;;;;;;4995124;28;20116;-65
2021/12/06 01:44:02;;;;;;;18.20;13.45;;;;;;;;;;4996336;28;20118;-63
2021/12/06 01:46:30;;;;;;;19.02;13.20;;;;;;;;;;4996638;28;20042;-65
2021/12/06 01:48:58;;;;;;;16.75;11.90;;;;;;;;;;5030994;28;20503;-63
2021/12/06 01:51:25;;;;;;;18.65;13.07;;;;;;;;;;5030824;28;20053;-62
2021/12/06 01:53:52;;;;;;;20.67;14.20;;;;;;;;;;5015703;28;20042;-62
2021/12/06 01:56:19;;;;;;;19.20;13.98;;;;;;;;;;5015652;28;20095;-62
2021/12/06 01:58:46;;;;;;;19.38;13.98;;;;;;;;;;5030598;28;20064;-63
2021/12/06 02:01:13;;;;;;;20.40;14.02;;;;;;;;;;5015423;28;20128;-63
2021/12/06 02:03:41;;;;;;;21.55;14.48;;;;;;;;;;5014242;28;20046;-64
2021/12/06 02:06:09;;;;;;;24.00;15.20;;;;;;;;;;5014261;28;20049;-63
2021/12/06 02:08:36;;;;;;;22.67;15.18;;;;;;;;;;5030744;28;20515;-64
2021/12/06 02:11:03;;;;;;;20.25;13.57;;;;;;;;;;5014172;28;20046;-63
2021/12/06 02:14:28;;;;;;;21.70;14.32;;;;;;;;;;5014023;28;20439;-63
2021/12/06 02:16:30;;;;;;;18.95;13.63;;;;;;;;;;5017868;28;20470;-62
2021/12/06 02:19:03;;;;;;;20.15;13.45;;;;;;;;;;5014339;28;20482;-64
2021/12/06 02:21:34;;;;;;;17.65;13.38;;;;;;;;;;5017661;28;20046;-63
2021/12/06 02:24:04;;;;;;;22.42;15.10;;;;;;;;;;5015004;28;20419;-61
2021/12/06 02:26:31;;;;;;;21.23;14.52;;;;;;;;;;5014162;28;20379;-65
2021/12/06 02:28:59;;;;;;;23.38;14.90;;;;;;;;;;5014171;28;20049;-65
2021/12/06 02:31:27;;;;;;;20.30;14.40;;;;;;;;;;5014016;28;20042;-64
2021/12/06 02:33:53;;;;;;;19.85;14.20;;;;;;;;;;5014084;28;20053;-63
2021/12/06 02:36:22;;;;;;;19.83;13.75;;;;;;;;;;5013900;28;20058;-64
2021/12/06 02:38:49;;;;;;;22.42;14.52;;;;;;;;;;5013929;28;20049;-63
2021/12/06 02:41:18;;;;;;;20.02;14.63;;;;;;;;;;5013950;28;20069;-63
2021/12/06 02:43:45;;;;;;;20.88;15.23;;;;;;;;;;5013852;28;20053;-64
2021/12/06 02:46:14;;;;;;;22.58;15.00;;;;;;;;;;4997846;28;20072;-65
2021/12/06 02:48:41;;;;;;;22.27;15.40;;;;;;;;;;5015025;28;20057;-65
2021/12/06 02:51:08;;;;;;;25.52;15.18;;;;;;;;;;5013801;28;20498;-63
2021/12/06 02:53:36;;;;;;;22.15;14.95;;;;;;;;;;5013889;28;20054;-63
2021/12/06 02:56:06;;;;;;;22.80;14.50;;;;;;;;;;5030204;28;20513;-62
2021/12/06 03:01:11;;;;;;;23.08;15.38;;;;;;;;;;5014845;28;20317;-63
2021/12/06 03:03:39;;;;;;;24.30;14.57;;;;;;;;;;5013408;28;20080;-63
2021/12/06 03:06:09;;;;;;;29.90;15.20;;;;;;;;;;4997705;28;20046;-63
2021/12/06 03:08:47;;;;;;;20.88;14.40;;;;;;;;;;5013829;28;20046;-62
2021/12/06 03:11:19;;;;;;;24.65;15.98;;;;;;;;;;5016666;28;20156;-62
2021/12/06 03:13:46;;;;;;;26.17;14.98;;;;;;;;;;5017379;28;20042;-64
2021/12/06 03:16:14;;;;;;;21.85;14.60;;;;;;;;;;5017166;28;20512;-62
2021/12/06 03:18:43;;;;;;;22.65;14.15;;;;;;;;;;5017287;28;20510;-65
2021/12/06 03:21:10;;;;;;;22.27;15.80;;;;;;;;;;5034005;28;20348;-64
2021/12/06 03:23:37;;;;;;;21.80;15.43;;;;;;;;;;5016958;28;20439;-63
2021/12/06 03:26:05;;;;;;;19.67;15.10;;;;;;;;;;5016890;28;20057;-64
2021/12/06 03:28:37;;;;;;;21.73;15.10;;;;;;;;;;5017080;28;20050;-60
2021/12/06 03:31:06;;;;;;;22.15;15.00;;;;;;;;;;5033484;28;20407;-64
2021/12/06 03:33:35;;;;;;;20.88;15.20;;;;;;;;;;5033549;28;20049;-62
2021/12/06 03:36:03;;;;;;;27.77;16.20;;;;;;;;;;5016917;28;20070;-62
2021/12/06 03:38:31;;;;;;;21.90;16.02;;;;;;;;;;5017165;28;20408;-65
2021/12/06 03:40:58;;;;;;;25.30;17.08;;;;;;;;;;5016851;28;20046;-63
2021/12/06 03:43:25;;;;;;;26.98;16.20;;;;;;;;;;5016751;28;20058;-62
2021/12/06 03:45:52;;;;;;;28.23;16.25;;;;;;;;;;5016765;28;20052;-61
2021/12/06 03:48:19;;;;;;;28.23;17.48;;;;;;;;;;5033147;28;20459;-63
2021/12/06 03:50:46;;;;;;;25.65;15.75;;;;;;;;;;5016737;28;20042;-63
2021/12/06 03:53:13;;;;;;;26.98;15.80;;;;;;;;;;5000431;28;20100;-63
2021/12/06 03:55:39;;;;;;;28.00;15.73;;;;;;;;;;5017598;28;20064;-64
2021/12/06 03:58:06;;;;;;;27.60;17.48;;;;;;;;;;5000385;28;20049;-64
2021/12/06 04:00:36;;;;;;;32.45;18.48;;;;;;;;;;5032967;28;20049;-63
2021/12/06 04:03:04;;;;;;;28.10;16.98;;;;;;;;;;5016519;28;20112;-61
2021/12/06 04:05:31;;;;;;;34.45;19.02;;;;;;;;;;5016429;28;20050;-64
2021/12/06 04:07:58;;;;;;;25.52;17.52;;;;;;;;;;5017440;28;20113;-63
2021/12/06 04:10:26;;;;;;;28.73;17.38;;;;;;;;;;5016154;28;20042;-63
2021/12/06 04:12:58;;;;;;;27.30;17.42;;;;;;;;;;5016345;28;20070;-62
2021/12/06 04:15:31;;;;;;;28.95;19.08;;;;;;;;;;5016340;28;20045;-63
2021/12/06 04:17:58;;;;;;;35.42;18.98;;;;;;;;;;5017420;28;20133;-64
2021/12/06 04:20:26;;;;;;;31.63;19.05;;;;;;;;;;5015937;28;20076;-61
2021/12/06 04:22:53;;;;;;;31.48;19.10;;;;;;;;;;5015779;28;20128;-64
2021/12/06 04:25:20;;;;;;;36.83;19.50;;;;;;;;;;5016637;28;20125;-62
2021/12/06 04:27:55;;;;;;;30.50;19.42;;;;;;;;;;5015840;28;20042;-62
2021/12/06 04:30:24;;;;;;;32.53;19.83;;;;;;;;;;5016196;28;20054;-64
2021/12/06 04:32:54;;;;;;;30.60;18.88;;;;;;;;;;5015867;28;20466;-64
2021/12/06 04:35:21;;;;;;;35.95;20.40;;;;;;;;;;5017261;28;20068;-63
2021/12/06 04:37:48;;;;;;;64.03;21.08;;;;;;;;;;4999660;28;20131;-61
2021/12/06 04:40:15;;;;;;;72.47;19.70;;;;;;;;;;5032425;28;20053;-62
2021/12/06 04:42:42;;;;;;;32.83;20.25;;;;;;;;;;5007659;28;20050;-62
2021/12/06 04:45:10;;;;;;;43.28;22.23;;;;;;;;;;5007097;28;20053;-62
2021/12/06 04:47:38;;;;;;;33.58;20.17;;;;;;;;;;5016640;28;20053;-64
2021/12/06 04:50:06;;;;;;;38.80;20.42;;;;;;;;;;5012352;28;20060;-65
2021/12/06 04:52:33;;;;;;;37.33;21.20;;;;;;;;;;5015394;28;20061;-64
2021/12/06 04:55:01;;;;;;;34.60;20.15;;;;;;;;;;5015608;28;20054;-62
2021/12/06 04:57:38;;;;;;;37.63;22.02;;;;;;;;;;5031560;28;20073;-63
2021/12/06 05:00:05;;;;;;;37.63;21.60;;;;;;;;;;5015383;28;20053;-62
2021/12/06 05:02:34;;;;;;;55.80;22.10;;;;;;;;;;5031808;28;20358;-63
2021/12/06 05:05:03;;;;;;;;;;;;;;;;;;5015724;28;20092;-63
2021/12/06 05:07:32;;;;;;;43.58;22.02;;;;;;;;;;5031479;28;19925;-64
2021/12/06 05:09:59;;;;;;;81.85;21.92;;;;;;;;;;5015224;28;20450;-63
2021/12/06 05:12:28;;;;;;;46.65;23.17;;;;;;;;;;5031545;28;20134;-62
2021/12/06 05:14:55;;;;;;;125.70;23.15;;;;;;;;;;5015139;28;20056;-62
2021/12/06 05:17:22;;;;;;;99.75;22.77;;;;;;;;;;5007523;28;20765;-64
2021/12/06 05:19:51;;;;;;;113.22;24.17;;;;;;;;;;5015035;28;20046;-62
2021/12/06 05:22:17;;;;;;;108.10;24.17;;;;;;;;;;5015257;28;20093;-62
2021/12/06 05:24:44;;;;;;;70.65;24.40;;;;;;;;;;5014622;28;20396;-62
2021/12/06 05:27:12;;;;;;;111.35;23.30;;;;;;;;;;5031483;28;20742;-62
2021/12/06 05:29:45;;;;;;;105.45;24.67;;;;;;;;;;5014904;28;20356;-64
2021/12/06 05:32:12;;;;;;;149.35;24.02;;;;;;;;;;4997504;28;20042;-65
2021/12/06 05:34:40;;;;;;;88.68;23.30;;;;;;;;;;4995031;28;20050;-64
2021/12/06 05:37:09;;;;;;;85.38;23.73;;;;;;;;;;4996214;28;20549;-65
2021/12/06 05:39:35;;;;;;;83.15;22.58;;;;;;;;;;4996118;28;20034;-63
2021/12/06 05:42:03;;;;;;;106.07;23.95;;;;;;;;;;4999996;28;20450;-63
2021/12/06 05:44:30;;;;;;;164.45;22.58;;;;;;;;;;5015614;28;20053;-62
2021/12/06 05:46:57;;;;;;;162.63;21.83;;;;;;;;;;5012562;28;20075;-63
2021/12/06 05:49:25;;;;;;;130.50;23.30;;;;;;;;;;5015593;28;20052;-64
2021/12/06 05:51:52;;;;;;;72.03;21.42;;;;;;;;;;5015974;28;20096;-63
2021/12/06 05:54:19;;;;;;;121.20;22.35;;;;;;;;;;5015523;28;20153;-64
2021/12/06 05:56:46;;;;;;;122.28;23.75;;;;;;;;;;5001285;28;20149;-64
2021/12/06 05:59:14;;;;;;;67.50;23.27;;;;;;;;;;4995878;28;20071;-65
2021/12/06 06:01:40;;;;;;;88.35;23.77;;;;;;;;;;4995805;28;20046;-63
2021/12/06 06:04:07;;;;;;;108.45;24.33;;;;;;;;;;4994563;28;20061;-57
2021/12/06 06:06:35;;;;;;;118.15;22.90;;;;;;;;;;5002014;28;20084;-63
2021/12/06 06:09:03;;;;;;;99.75;23.63;;;;;;;;;;5004017;28;20424;-63
2021/12/06 06:11:29;;;;;;;74.93;24.20;;;;;;;;;;4994703;28;20042;-62
2021/12/06 06:13:56;;;;;;;95.03;22.73;;;;;;;;;;4994430;28;20055;-55
2021/12/06 06:16:30;;;;;;;89.22;23.67;;;;;;;;;;4995807;28;20120;-61
2021/12/06 06:18:57;;;;;;;117.70;24.70;;;;;;;;;;4995881;28;20424;-60
2021/12/06 06:21:24;;;;;;;107.60;23.92;;;;;;;;;;4994549;28;20050;-56
2021/12/06 06:23:51;;;;;;;64.20;24.80;;;;;;;;;;4995381;28;20116;-56
2021/12/06 06:26:18;;;;;;;90.70;24.92;;;;;;;;;;5008328;28;20046;-59
2021/12/06 06:28:44;;;;;;;82.03;23.77;;;;;;;;;;5001634;28;20416;-61
2021/12/06 06:31:11;;;;;;;106.88;25.42;;;;;;;;;;4997304;28;20037;-62
2021/12/06 06:33:38;;;;;;;132.30;23.75;;;;;;;;;;5004816;28;20034;-61
2021/12/06 06:36:05;;;;;;;97.97;24.60;;;;;;;;;;5000616;28;20050;-61
2021/12/06 06:38:32;;;;;;;99.05;23.75;;;;;;;;;;5002287;28;20038;-61
2021/12/06 06:40:58;;;;;;;96.35;24.50;;;;;;;;;;5010669;28;20058;-61
2021/12/06 06:43:25;;;;;;;118.25;25.27;;;;;;;;;;5000538;28;20514;-61
2021/12/06 06:45:52;;;;;;;74.68;23.52;;;;;;;;;;4997804;28;20109;-66
2021/12/06 06:48:18;;;;;;;113.93;23.98;;;;;;;;;;4998836;28;20050;-61
2021/12/06 06:50:45;;;;;;;119.63;23.77;;;;;;;;;;5009381;28;20050;-63
2021/12/06 06:53:12;;;;;;;95.53;24.27;;;;;;;;;;5011441;28;20116;-65
2021/12/06 06:55:38;;;;;;;79.13;24.58;;;;;;;;;;5006693;28;20317;-63
2021/12/06 06:58:05;;;;;;;65.88;25.38;;;;;;;;;;5014874;28;20494;-65
2021/12/06 07:00:34;;;;;;;57.65;25.45;;;;;;;;;;5017536;28;20108;-71
2021/12/06 07:03:02;;;;;;;89.43;24.63;;;;;;;;;;5017316;28;20388;-71
2021/12/06 07:05:29;;;;;;;68.63;23.90;;;;;;;;;;4998612;28;20044;-63
2021/12/06 07:07:56;;;;;;;64.28;24.00;;;;;;;;;;4997603;28;20329;-65
2021/12/06 07:10:23;;;;;;;60.67;25.27;;;;;;;;;;5007196;28;20551;-65
2021/12/06 07:12:51;;;;;;;68.00;25.40;;;;;;;;;;5015287;28;20050;-62
2021/12/06 07:15:20;;;;;;;103.47;23.92;;;;;;;;;;5019101;28;20049;-61
2021/12/06 07:17:47;;;;;;;63.88;24.42;;;;;;;;;;5013467;28;20136;-68
2021/12/06 07:20:14;;;;;;;65.65;23.73;;;;;;;;;;5016297;28;20045;-63
2021/12/06 07:22:41;;;;;;;44.83;23.13;;;;;;;;;;5002020;28;20042;-60
2021/12/06 07:25:10;;;;;;;59.50;23.90;;;;;;;;;;5010180;28;20416;-62
2021/12/06 07:27:37;;;;;;;50.30;21.90;;;;;;;;;;5017915;28;20446;-61
2021/12/06 07:30:04;;;;;;;63.40;23.98;;;;;;;;;;5017814;28;20050;-63
2021/12/06 07:32:31;;;;;;;43.35;21.60;;;;;;;;;;5016645;28;20427;-62
2021/12/06 07:34:58;;;;;;;46.63;21.27;;;;;;;;;;5017757;28;20042;-64
2021/12/06 07:37:24;;;;;;;40.85;22.15;;;;;;;;;;5017734;28;20044;-63
2021/12/06 07:39:51;;;;;;;44.97;22.60;;;;;;;;;;5000478;28;20141;-63
2021/12/06 07:42:18;;;;;;;42.25;22.02;;;;;;;;;;5017660;28;20041;-58
2021/12/06 07:44:45;;;;;;;47.53;21.85;;;;;;;;;;5014533;28;20119;-62
2021/12/06 07:47:12;;;;;;;42.17;23.08;;;;;;;;;;5015791;28;20042;-62
2021/12/06 07:49:39;;;;;;;41.40;22.23;;;;;;;;;;5008177;28;20038;-62
2021/12/06 07:52:24;;;;;;;43.42;22.45;;;;;;;;;;5008357;28;20431;-63
2021/12/06 07:54:51;;;;;;;42.67;22.45;;;;;;;;;;5006310;28;20053;-63
2021/12/06 07:57:18;;;;;;;44.90;22.52;;;;;;;;;;5006458;28;20101;-63
2021/12/06 07:59:44;;;;;;;38.45;20.55;;;;;;;;;;5017477;28;20046;-63
2021/12/06 08:02:11;;;;;;;39.20;22.52;;;;;;;;;;5010310;28;20054;-63
2021/12/06 08:04:39;;;;;;;42.03;22.00;;;;;;;;;;4997944;28;20038;-62
2021/12/06 08:07:05;;;;;;;44.42;22.48;;;;;;;;;;4996624;28;20105;-62
2021/12/06 08:09:32;;;;;;;38.88;21.63;;;;;;;;;;5004735;28;20117;-62
2021/12/06 08:11:59;;;;;;;43.20;22.02;;;;;;;;;;5013284;28;20096;-62
2021/12/06 08:14:26;;;;;;;42.88;21.75;;;;;;;;;;5010749;28;20033;-62
2021/12/06 08:16:53;;;;;;;42.40;21.95;;;;;;;;;;5005669;28;20050;-63
2021/12/06 08:19:19;;;;;;;45.47;22.42;;;;;;;;;;5007652;28;20042;-63
2021/12/06 08:21:46;;;;;;;41.30;22.42;;;;;;;;;;5017190;28;20042;-65
2021/12/06 08:24:13;;;;;;;40.35;21.40;;;;;;;;;;5014961;28;20053;-64
2021/12/06 08:26:41;;;;;;;37.67;21.95;;;;;;;;;;5016862;28;20391;-63
2021/12/06 08:29:08;;;;;;;44.00;22.27;;;;;;;;;;5017129;28;20069;-61
2021/12/06 08:31:36;;;;;;;40.50;21.63;;;;;;;;;;5016549;28;20545;-63
2021/12/06 08:34:04;;;;;;;41.00;22.42;;;;;;;;;;5004939;28;20040;-63
2021/12/06 08:36:31;;;;;;;40.55;22.35;;;;;;;;;;4997423;28;20050;-64
2021/12/06 08:38:58;;;;;;;43.72;23.42;;;;;;;;;;5011898;28;20080;-62
2021/12/06 08:41:26;;;;;;;48.38;23.50;;;;;;;;;;5016478;28;20060;-62
2021/12/06 08:43:53;;;;;;;48.40;24.15;;;;;;;;;;4999448;28;20112;-64
2021/12/06 08:46:22;;;;;;;49.33;23.92;;;;;;;;;;4997160;28;20433;-65
2021/12/06 08:48:49;;;;;;;52.00;26.15;;;;;;;;;;5001433;28;20053;-65
2021/12/06 08:51:19;;;;;;;52.13;24.98;;;;;;;;;;5016189;28;20436;-64
2021/12/06 08:53:46;;;;;;;50.78;23.77;;;;;;;;;;5011126;28;20928;-61
2021/12/06 08:56:13;;;;;;;48.60;24.83;;;;;;;;;;5012963;28;20451;-62
2021/12/06 08:58:40;;;;;;;52.90;24.70;;;;;;;;;;5012792;28;20062;-62
2021/12/06 09:01:08;;;;;;;46.05;23.67;;;;;;;;;;5015221;28;20050;-63
2021/12/06 09:03:35;;;;;;;46.60;22.60;;;;;;;;;;5014031;28;20050;-63
2021/12/06 09:06:06;;;;;;;41.60;22.85;;;;;;;;;;5014978;28;20038;-65
2021/12/06 09:08:34;;;;;;;43.13;23.45;;;;;;;;;;5013803;28;20050;-65
2021/12/06 09:11:01;;;;;;;41.35;22.05;;;;;;;;;;5012170;28;20061;-64
2021/12/06 09:13:28;;;;;;;43.72;22.08;;;;;;;;;;5013160;28;20366;-63
2021/12/06 09:15:59;;;;;;;39.30;21.42;;;;;;;;;;5004488;28;20120;-64
2021/12/06 09:18:26;;;;;;;42.53;22.15;;;;;;;;;;5011042;28;20053;-65
2021/12/06 09:20:53;;;;;;;39.55;21.35;;;;;;;;;;5014018;28;20077;-63
2021/12/06 09:23:25;;;;;;;34.88;20.08;;;;;;;;;;5006358;28;20054;-63
2021/12/06 09:25:52;;;;;;;40.10;21.95;;;;;;;;;;5011506;28;20050;-64
2021/12/06 09:28:18;;;;;;;39.33;21.05;;;;;;;;;;5015756;28;20095;-63
2021/12/06 09:30:46;;;;;;;39.83;20.95;;;;;;;;;;5015855;28;20046;-63
2021/12/06 09:33:14;;;;;;;41.63;20.80;;;;;;;;;;5015538;28;20042;-60
2021/12/06 09:35:43;;;;;;;45.05;20.92;;;;;;;;;;5015932;28;20054;-64
2021/12/06 09:38:14;;;;;;;35.65;20.90;;;;;;;;;;5031319;28;20049;-64
2021/12/06 09:40:42;;;;;;;40.00;20.05;;;;;;;;;;5015963;28;20049;-63
2021/12/06 09:43:10;;;;;;;37.47;20.67;;;;;;;;;;5015827;28;20097;-64
2021/12/06 09:45:38;;;;;;;38.63;19.48;;;;;;;;;;5000782;28;20053;-62
2021/12/06 09:48:05;;;;;;;35.22;18.58;;;;;;;;;;4999796;28;20070;-62
2021/12/06 09:50:35;;;;;;;36.83;18.85;;;;;;;;;;5003664;28;20054;-63
2021/12/06 09:53:05;;;;;;;31.33;18.65;;;;;;;;;;5008508;28;20050;-62
2021/12/06 09:55:32;;;;;;;31.00;18.23;;;;;;;;;;5023671;28;20038;-62
2021/12/06 09:57:59;;;;;;;35.38;18.73;;;;;;;;;;5013224;28;20431;-64
2021/12/06 10:00:29;;;;;;;29.92;17.95;;;;;;;;;;5015527;28;20395;-64
2021/12/06 10:02:56;;;;;;;30.00;17.05;;;;;;;;;;5014339;28;20044;-64
2021/12/06 10:05:29;;;;;;;31.95;18.30;;;;;;;;;;5015580;28;20050;-62
2021/12/06 10:07:57;;;;;;;31.45;17.27;;;;;;;;;;5015184;28;20045;-63
2021/12/06 10:10:24;;;;;;;31.38;16.55;;;;;;;;;;5015197;28;20060;-63
2021/12/06 10:12:52;;;;;;;29.98;16.98;;;;;;;;;;5015323;28;20046;-63
2021/12/06 10:15:20;;;;;;;28.33;16.23;;;;;;;;;;5015471;28;20072;-64
2021/12/06 10:17:47;;;;;;;25.27;15.05;;;;;;;;;;5015297;28;20052;-61
2021/12/06 10:20:15;;;;;;;24.25;14.63;;;;;;;;;;5013981;28;20049;-63
2021/12/06 10:22:41;;;;;;;26.58;16.42;;;;;;;;;;5030522;28;20050;-63
2021/12/06 10:25:08;;;;;;;26.88;15.63;;;;;;;;;;5024465;28;20049;-61
2021/12/06 10:27:56;;;;;;;25.30;16.27;;;;;;;;;;5005987;28;20049;-62
2021/12/06 10:30:24;;;;;;;28.73;16.48;;;;;;;;;;4998149;28;20034;-62
2021/12/06 10:32:59;;;;;;;23.10;14.95;;;;;;;;;;4997701;28;20042;-62
2021/12/06 10:35:26;;;;;;;28.90;15.85;;;;;;;;;;4995343;28;20054;-62
2021/12/06 10:37:54;;;;;;;25.45;15.80;;;;;;;;;;5008861;28;20108;-63
2021/12/06 10:40:22;;;;;;;25.90;15.50;;;;;;;;;;5014864;28;20057;-62
2021/12/06 10:42:50;;;;;;;26.42;14.73;;;;;;;;;;5011973;28;20046;-64
2021/12/06 10:45:25;;;;;;;21.20;13.63;;;;;;;;;;5015124;28;20050;-63
2021/12/06 10:48:11;;;;;;;20.27;12.07;;;;;;;;;;5013510;28;20399;-62
2021/12/06 10:50:41;;;;;;;21.73;13.10;;;;;;;;;;5014804;28;20042;-61
2021/12/06 10:53:08;;;;;;;19.88;12.35;;;;;;;;;;5014940;28;20057;-62
2021/12/06 10:55:35;;;;;;;17.90;11.40;;;;;;;;;;5014455;28;20125;-62
2021/12/06 10:58:04;;;;;;;16.88;11.23;;;;;;;;;;5014679;28;20057;-61
2021/12/06 11:00:30;;;;;;;15.40;11.02;;;;;;;;;;5013552;28;20388;-64
2021/12/06 11:02:58;;;;;;;16.40;10.02;;;;;;;;;;4995066;28;20042;-62
2021/12/06 11:05:25;;;;;;;16.73;9.98;;;;;;;;;;5005017;28;20053;-62
2021/12/06 11:08:08;;;;;;;12.93;9.55;;;;;;;;;;4995665;28;20100;-68
2021/12/06 11:10:39;;;;;;;13.57;8.73;;;;;;;;;;4994081;28;20041;-63
2021/12/06 11:13:06;;;;;;;;;;;;;;;;;;5010931;28;20100;-62
2021/12/06 11:15:32;;;;;;;13.50;8.18;;;;;;;;;;5010403;28;19926;-63
2021/12/06 11:18:00;;;;;;;13.35;8.65;;;;;;;;;;5014708;28;20046;-62
2021/12/06 11:20:27;;;;;;;12.20;8.95;;;;;;;;;;5013688;28;20042;-65
2021/12/06 11:23:03;;;;;;;12.43;8.10;;;;;;;;;;5013569;28;20056;-62
2021/12/06 11:25:33;;;;;;;13.07;8.90;;;;;;;;;;5008298;28;20037;-62
2021/12/06 11:28:00;;;;;;;11.20;7.83;;;;;;;;;;5006693;28;20046;-63
2021/12/06 11:30:27;;;;;;;12.32;7.13;;;;;;;;;;5009200;28;20713;-61
2021/12/06 11:32:55;;;;;;;11.68;7.90;;;;;;;;;;5009108;28;20039;-59
2021/12/06 11:35:24;;;;;;;11.20;7.90;;;;;;;;;;5001425;28;20053;-62
2021/12/06 11:37:52;;;;;;;15.32;7.90;;;;;;;;;;5007727;28;20061;-64
2021/12/06 11:40:38;;;;;;;10.63;7.97;;;;;;;;;;5009563;28;20056;-63
2021/12/06 11:43:10;;;;;;;10.95;7.13;;;;;;;;;;5008187;28;20044;-64
2021/12/06 11:45:40;;;;;;;9.18;6.55;;;;;;;;;;5011662;28;20048;-62
2021/12/06 11:48:09;;;;;;;10.15;6.55;;;;;;;;;;5014060;28;20049;-63
2021/12/06 11:50:54;;;;;;;10.77;7.35;;;;;;;;;;5008734;28;20050;-62
2021/12/06 11:53:26;;;;;;;8.77;6.13;;;;;;;;;;5011489;28;20038;-62
2021/12/06 11:55:54;;;;;;;9.05;6.38;;;;;;;;;;5011758;28;20399;-62
2021/12/06 11:58:22;;;;;;;8.27;6.00;;;;;;;;;;5003984;28;20041;-62
2021/12/06 12:01:04;;;;;;;6.53;5.05;;;;;;;;;;5012419;28;20050;-57
2021/12/06 12:03:32;;;;;;;6.88;4.90;;;;;;;;;;5010227;28;20458;-64
2021/12/06 12:05:59;;;;;;;8.43;5.13;;;;;;;;;;5002947;28;20053;-59
2021/12/06 12:08:30;;;;;;;7.85;5.00;;;;;;;;;;5009229;28;20043;-59
2021/12/06 12:10:57;;;;;;;7.57;3.97;;;;;;;;;;5005862;28;20041;-68
2021/12/06 12:13:30;;;;;;;8.10;4.90;;;;;;;;;;5007965;28;20510;-61
2021/12/06 12:16:02;;;;;;;5.68;4.20;;;;;;;;;;5009867;28;20114;-64
2021/12/06 12:18:29;;;;;;;5.60;4.10;;;;;;;;;;5005378;28;20042;-68
2021/12/06 12:20:56;;;;;;;7.22;4.50;;;;;;;;;;5014941;28;20114;-63
2021/12/06 12:23:25;;;;;;;6.05;3.85;;;;;;;;;;5013544;28;20050;-66
2021/12/06 12:28:23;;;;;;;7.82;3.75;;;;;;;;;;5011874;28;20065;-64
2021/12/06 12:30:51;;;;;;;6.00;3.80;;;;;;;;;;5010598;28;20042;-65
2021/12/06 12:33:19;;;;;;;5.68;3.78;;;;;;;;;;5020578;28;20038;-62
2021/12/06 12:35:49;;;;;;;5.70;3.97;;;;;;;;;;5008044;28;20038;-65
2021/12/06 12:38:21;;;;;;;5.22;3.85;;;;;;;;;;5005369;28;20053;-63
2021/12/06 12:40:49;;;;;;;6.80;3.75;;;;;;;;;;5001046;28;20046;-61
2021/12/06 12:43:17;;;;;;;6.28;4.38;;;;;;;;;;5003305;28;20034;-62
2021/12/06 12:45:46;;;;;;;6.50;3.97;;;;;;;;;;5004903;28;20049;-61
2021/12/06 12:48:15;;;;;;;5.75;4.15;;;;;;;;;;5001001;28;20108;-65
2021/12/06 12:50:59;;;;;;;5.70;4.03;;;;;;;;;;5021313;28;20045;-61
2021/12/06 12:53:26;;;;;;;5.22;3.80;;;;;;;;;;5007108;28;20044;-62
2021/12/06 12:55:53;;;;;;;5.35;3.67;;;;;;;;;;5002826;28;20030;-61
2021/12/06 12:58:23;;;;;;;5.43;3.92;;;;;;;;;;5005094;28;20381;-60
2021/12/06 13:00:58;;;;;;;5.55;3.78;;;;;;;;;;5003880;28;20125;-60
2021/12/06 13:03:29;;;;;;;4.88;3.50;;;;;;;;;;5003532;28;20049;-61
2021/12/06 13:06:12;;;;;;;5.68;3.67;;;;;;;;;;5005615;28;20065;-61
2021/12/06 13:08:38;;;;;;;6.18;3.70;;;;;;;;;;5012258;28;20096;-67
2021/12/06 13:11:05;;;;;;;6.53;3.55;;;;;;;;;;4996776;28;20050;-61
2021/12/06 13:13:42;;;;;;;6.03;4.00;;;;;;;;;;4996666;28;20045;-60
2021/12/06 13:19:15;;;;;;;5.28;3.25;;;;;;;;;;5013101;28;20042;-65
2021/12/06 13:22:03;;;;;;;6.13;3.70;;;;;;;;;;5013264;28;20033;-61
2021/12/06 13:24:33;;;;;;;5.38;4.13;;;;;;;;;;5011159;28;20156;-63
2021/12/06 13:27:02;;;;;;;7.38;4.55;;;;;;;;;;5002158;28;20044;-56
2021/12/06 13:29:39;;;;;;;6.07;4.38;;;;;;;;;;5016091;28;20165;-59
2021/12/06 13:32:24;;;;;;;6.15;4.43;;;;;;;;;;5014869;28;20050;-64
2021/12/06 13:34:53;;;;;;;5.72;4.18;;;;;;;;;;5007207;28;20033;-61
2021/12/06 13:37:24;;;;;;;4.60;3.50;;;;;;;;;;5002443;28;20100;-61
2021/12/06 13:39:51;;;;;;;6.82;4.22;;;;;;;;;;5015662;28;20096;-61
2021/12/06 13:42:40;;;;;;;6.68;4.55;;;;;;;;;;5005373;28;20045;-61
2021/12/06 13:45:20;;;;;;;5.60;4.05;;;;;;;;;;5006387;28;20112;-61
2021/12/06 13:48:06;;;;;;;5.70;4.00;;;;;;;;;;5007081;28;20053;-63
2021/12/06 13:50:33;;;;;;;5.75;4.32;;;;;;;;;;5004197;28;20428;-61
2021/12/06 13:53:00;;;;;;;5.57;4.25;;;;;;;;;;5009378;28;20092;-62
2021/12/06 13:55:28;;;;;;;5.30;3.83;;;;;;;;;;5012995;28;20445;-62
2021/12/06 13:57:57;;;;;;;8.10;4.20;;;;;;;;;;5013905;28;20116;-62
2021/12/06 14:00:26;;;;;;;7.97;4.53;;;;;;;;;;5011525;28;20432;-62
2021/12/06 14:02:56;;;;;;;5.47;3.83;;;;;;;;;;5014678;28;20439;-61
2021/12/06 14:05:24;;;;;;;8.45;4.28;;;;;;;;;;5015416;28;20426;-60
2021/12/06 14:07:51;;;;;;;6.07;4.07;;;;;;;;;;5015337;28;20422;-63
2021/12/06 14:10:18;;;;;;;8.43;4.25;;;;;;;;;;5015292;28;20042;-61
2021/12/06 14:12:44;;;;;;;6.13;3.85;;;;;;;;;;5013624;28;20116;-62
2021/12/06 14:15:17;;;;;;;7.13;4.90;;;;;;;;;;5015709;28;20313;-63
2021/12/06 14:17:45;;;;;;;6.03;3.90;;;;;;;;;;5015444;28;20056;-61
2021/12/06 14:20:12;;;;;;;5.10;3.92;;;;;;;;;;5001774;28;20051;-60
2021/12/06 14:22:41;;;;;;;6.05;4.30;;;;;;;;;;5013636;28;20596;-62
2021/12/06 14:25:09;;;;;;;6.78;4.13;;;;;;;;;;5001460;28;20057;-65
2021/12/06 14:27:38;;;;;;;6.70;4.88;;;;;;;;;;5002233;28;20623;-65
2021/12/06 14:30:07;;;;;;;6.07;4.40;;;;;;;;;;5003117;28;20045;-63
2021/12/06 14:32:33;;;;;;;7.93;5.07;;;;;;;;;;5009270;28;20424;-61
2021/12/06 14:35:00;;;;;;;6.63;5.28;;;;;;;;;;5006520;28;20065;-63
2021/12/06 14:37:26;;;;;;;6.38;4.57;;;;;;;;;;4998806;28;20037;-63
2021/12/06 14:39:57;;;;;;;5.60;4.20;;;;;;;;;;5008809;28;20388;-63
2021/12/06 14:42:25;;;;;;;7.40;5.18;;;;;;;;;;5012282;28;20046;-63
2021/12/06 14:45:03;;;;;;;6.50;4.63;;;;;;;;;;5027657;28;20042;-65
2021/12/06 14:47:40;;;;;;;7.03;4.40;;;;;;;;;;4996243;28;20038;-63
2021/12/06 14:50:18;;;;;;;6.40;4.28;;;;;;;;;;5013009;28;20041;-65
2021/12/06 14:52:50;;;;;;;5.60;4.38;;;;;;;;;;5006647;28;20065;-64
2021/12/06 14:58:37;;;;;;;6.60;4.05;;;;;;;;;;5010256;28;20061;-62
2021/12/06 15:01:04;;;;;;;7.20;4.65;;;;;;;;;;5008037;28;20042;-62